sensor_id;sensor_type;location;lat;lon;timestamp;P1;durP1;ratioP1;P2;durP2;ratioP2
71622;SDS011;59473;53.214;5.728;2022-12-20T00:00:07;9.70;;;5.20;;
71622;SDS011;59473;53.214;5.728;2022-12-20T00:02:33;13.13;;;5.45;;
71622;SDS011;59473;53.214;5.728;2022-12-20T00:04:58;10.50;;;5.00;;
71622;SDS011;59473;53.214;5.728;2022-12-20T00:07:23;10.47;;;5.53;;
71622;SDS011;59473;53.214;5.728;2022-12-20T00:09:48;14.27;;;5.37;;
71622;SDS011;59473;53.214;5.728;2022-12-20T00:12:14;11.10;;;5.07;;
71622;SDS011;59473;53.214;5.728;2022-12-20T00:14:39;9.47;;;5.47;;
71622;SDS011;59473;53.214;5.728;2022-12-20T00:17:04;10.93;;;5.50;;
71622;SDS011;59473;53.214;5.728;2022-12-20T00:19:29;12.53;;;5.07;;
71622;SDS011;59473;53.214;5.728;2022-12-20T00:21:55;9.57;;;5.47;;
71622;SDS011;59473;53.214;5.728;2022-12-20T00:24:20;12.00;;;5.17;;
71622;SDS011;59473;53.214;5.728;2022-12-20T00:26:45;11.10;;;5.23;;
71622;SDS011;59473;53.214;5.728;2022-12-20T00:29:10;12.33;;;5.27;;
71622;SDS011;59473;53.214;5.728;2022-12-20T00:31:35;9.90;;;4.87;;
71622;SDS011;59473;53.214;5.728;2022-12-20T00:34:01;9.63;;;5.13;;
71622;SDS011;59473;53.214;5.728;2022-12-20T00:36:27;11.20;;;5.40;;
71622;SDS011;59473;53.214;5.728;2022-12-20T00:38:53;8.35;;;5.05;;
71622;SDS011;59473;53.214;5.728;2022-12-20T00:41:23;11.35;;;5.00;;
71622;SDS011;59473;53.214;5.728;2022-12-20T00:43:48;9.45;;;5.43;;
71622;SDS011;59473;53.214;5.728;2022-12-20T00:46:14;8.77;;;4.90;;
71622;SDS011;59473;53.214;5.728;2022-12-20T00:48:39;8.67;;;4.77;;
71622;SDS011;59473;53.214;5.728;2022-12-20T00:51:06;9.00;;;5.20;;
71622;SDS011;59473;53.214;5.728;2022-12-20T00:53:31;10.73;;;5.30;;
71622;SDS011;59473;53.214;5.728;2022-12-20T00:55:56;10.83;;;5.00;;
71622;SDS011;59473;53.214;5.728;2022-12-20T00:58:22;8.20;;;4.50;;
71622;SDS011;59473;53.214;5.728;2022-12-20T01:00:47;8.25;;;5.10;;
71622;SDS011;59473;53.214;5.728;2022-12-20T01:03:13;8.53;;;4.90;;
71622;SDS011;59473;53.214;5.728;2022-12-20T01:05:38;7.77;;;5.07;;
71622;SDS011;59473;53.214;5.728;2022-12-20T01:08:04;10.47;;;5.10;;
71622;SDS011;59473;53.214;5.728;2022-12-20T01:10:29;10.75;;;5.00;;
71622;SDS011;59473;53.214;5.728;2022-12-20T01:12:54;13.10;;;5.40;;
71622;SDS011;59473;53.214;5.728;2022-12-20T01:15:20;8.98;;;5.10;;
71622;SDS011;59473;53.214;5.728;2022-12-20T01:17:45;9.15;;;5.07;;
71622;SDS011;59473;53.214;5.728;2022-12-20T01:20:10;11.50;;;4.47;;
71622;SDS011;59473;53.214;5.728;2022-12-20T01:22:35;12.10;;;4.67;;
71622;SDS011;59473;53.214;5.728;2022-12-20T01:25:01;9.53;;;5.03;;
71622;SDS011;59473;53.214;5.728;2022-12-20T01:27:26;8.03;;;4.60;;
71622;SDS011;59473;53.214;5.728;2022-12-20T01:29:52;10.40;;;4.90;;
71622;SDS011;59473;53.214;5.728;2022-12-20T01:32:18;10.63;;;4.80;;
71622;SDS011;59473;53.214;5.728;2022-12-20T01:34:43;9.87;;;5.07;;
71622;SDS011;59473;53.214;5.728;2022-12-20T01:37:08;8.97;;;4.43;;
71622;SDS011;59473;53.214;5.728;2022-12-20T01:39:34;11.50;;;5.03;;
71622;SDS011;59473;53.214;5.728;2022-12-20T01:41:59;9.60;;;4.83;;
71622;SDS011;59473;53.214;5.728;2022-12-20T01:46:49;9.33;;;4.80;;
71622;SDS011;59473;53.214;5.728;2022-12-20T01:49:35;8.55;;;4.55;;
71622;SDS011;59473;53.214;5.728;2022-12-20T01:52:12;10.30;;;5.00;;
71622;SDS011;59473;53.214;5.728;2022-12-20T01:57:10;10.15;;;5.25;;
71622;SDS011;59473;53.214;5.728;2022-12-20T01:59:36;8.52;;;4.72;;
71622;SDS011;59473;53.214;5.728;2022-12-20T02:02:04;8.75;;;5.30;;
71622;SDS011;59473;53.214;5.728;2022-12-20T02:04:31;8.67;;;5.03;;
71622;SDS011;59473;53.214;5.728;2022-12-20T02:06:56;9.27;;;5.15;;
71622;SDS011;59473;53.214;5.728;2022-12-20T02:09:22;12.50;;;5.30;;
71622;SDS011;59473;53.214;5.728;2022-12-20T02:16:47;9.13;;;4.60;;
71622;SDS011;59473;53.214;5.728;2022-12-20T02:21:40;10.80;;;5.87;;
71622;SDS011;59473;53.214;5.728;2022-12-20T02:31:39;10.03;;;5.27;;
71622;SDS011;59473;53.214;5.728;2022-12-20T02:34:06;10.43;;;5.20;;
71622;SDS011;59473;53.214;5.728;2022-12-20T02:36:33;8.40;;;5.07;;
71622;SDS011;59473;53.214;5.728;2022-12-20T02:38:58;10.60;;;5.20;;
71622;SDS011;59473;53.214;5.728;2022-12-20T02:41:25;11.30;;;5.00;;
71622;SDS011;59473;53.214;5.728;2022-12-20T02:43:55;10.85;;;5.68;;
71622;SDS011;59473;53.214;5.728;2022-12-20T02:46:41;9.70;;;5.13;;
71622;SDS011;59473;53.214;5.728;2022-12-20T02:49:14;9.53;;;5.37;;
71622;SDS011;59473;53.214;5.728;2022-12-20T02:51:40;8.65;;;5.20;;
71622;SDS011;59473;53.214;5.728;2022-12-20T02:54:07;8.80;;;4.90;;
71622;SDS011;59473;53.214;5.728;2022-12-20T02:56:34;11.60;;;5.30;;
71622;SDS011;59473;53.214;5.728;2022-12-20T02:59:02;8.98;;;5.28;;
71622;SDS011;59473;53.214;5.728;2022-12-20T03:01:33;10.75;;;5.20;;
71622;SDS011;59473;53.214;5.728;2022-12-20T03:04:00;10.57;;;5.73;;
71622;SDS011;59473;53.214;5.728;2022-12-20T03:06:26;12.23;;;4.85;;
71622;SDS011;59473;53.214;5.728;2022-12-20T03:08:51;12.07;;;5.70;;
71622;SDS011;59473;53.214;5.728;2022-12-20T03:11:16;9.17;;;5.73;;
71622;SDS011;59473;53.214;5.728;2022-12-20T03:13:42;8.47;;;5.10;;
71622;SDS011;59473;53.214;5.728;2022-12-20T03:16:07;10.93;;;5.17;;
71622;SDS011;59473;53.214;5.728;2022-12-20T03:18:33;9.90;;;5.07;;
71622;SDS011;59473;53.214;5.728;2022-12-20T03:20:58;11.00;;;5.57;;
71622;SDS011;59473;53.214;5.728;2022-12-20T03:23:23;8.50;;;5.03;;
71622;SDS011;59473;53.214;5.728;2022-12-20T03:25:48;8.33;;;4.80;;
71622;SDS011;59473;53.214;5.728;2022-12-20T03:28:14;10.83;;;4.87;;
71622;SDS011;59473;53.214;5.728;2022-12-20T03:30:39;10.70;;;4.93;;
71622;SDS011;59473;53.214;5.728;2022-12-20T03:33:04;10.37;;;4.63;;
71622;SDS011;59473;53.214;5.728;2022-12-20T03:35:29;8.50;;;4.47;;
71622;SDS011;59473;53.214;5.728;2022-12-20T03:37:55;12.43;;;4.90;;
71622;SDS011;59473;53.214;5.728;2022-12-20T03:40:20;13.13;;;5.17;;
71622;SDS011;59473;53.214;5.728;2022-12-20T03:42:45;9.50;;;4.67;;
71622;SDS011;59473;53.214;5.728;2022-12-20T03:45:11;10.30;;;5.53;;
71622;SDS011;59473;53.214;5.728;2022-12-20T03:47:36;10.13;;;5.00;;
71622;SDS011;59473;53.214;5.728;2022-12-20T03:50:01;9.63;;;5.18;;
71622;SDS011;59473;53.214;5.728;2022-12-20T03:52:26;9.05;;;5.53;;
71622;SDS011;59473;53.214;5.728;2022-12-20T03:54:52;9.30;;;5.55;;
71622;SDS011;59473;53.214;5.728;2022-12-20T03:57:17;9.57;;;4.78;;
71622;SDS011;59473;53.214;5.728;2022-12-20T03:59:42;10.10;;;5.30;;
71622;SDS011;59473;53.214;5.728;2022-12-20T04:02:08;10.18;;;5.07;;
71622;SDS011;59473;53.214;5.728;2022-12-20T04:04:33;10.57;;;4.97;;
71622;SDS011;59473;53.214;5.728;2022-12-20T04:06:58;9.03;;;4.90;;
71622;SDS011;59473;53.214;5.728;2022-12-20T04:09:24;9.47;;;5.30;;
71622;SDS011;59473;53.214;5.728;2022-12-20T04:11:49;11.00;;;5.33;;
71622;SDS011;59473;53.214;5.728;2022-12-20T04:14:14;7.97;;;5.27;;
71622;SDS011;59473;53.214;5.728;2022-12-20T04:16:39;11.70;;;5.97;;
71622;SDS011;59473;53.214;5.728;2022-12-20T04:19:05;11.70;;;5.33;;
71622;SDS011;59473;53.214;5.728;2022-12-20T04:21:31;8.77;;;5.10;;
71622;SDS011;59473;53.214;5.728;2022-12-20T04:23:57;11.82;;;5.00;;
71622;SDS011;59473;53.214;5.728;2022-12-20T04:26:22;10.55;;;5.25;;
71622;SDS011;59473;53.214;5.728;2022-12-20T04:28:48;9.73;;;5.47;;
71622;SDS011;59473;53.214;5.728;2022-12-20T04:31:13;10.03;;;4.70;;
71622;SDS011;59473;53.214;5.728;2022-12-20T04:33:38;8.50;;;5.03;;
71622;SDS011;59473;53.214;5.728;2022-12-20T04:36:03;10.13;;;4.53;;
71622;SDS011;59473;53.214;5.728;2022-12-20T04:38:29;8.97;;;4.73;;
71622;SDS011;59473;53.214;5.728;2022-12-20T04:40:54;7.53;;;4.20;;
71622;SDS011;59473;53.214;5.728;2022-12-20T04:43:20;13.93;;;5.00;;
71622;SDS011;59473;53.214;5.728;2022-12-20T04:45:46;11.73;;;5.00;;
71622;SDS011;59473;53.214;5.728;2022-12-20T04:48:12;10.45;;;4.72;;
71622;SDS011;59473;53.214;5.728;2022-12-20T04:50:37;11.70;;;5.90;;
71622;SDS011;59473;53.214;5.728;2022-12-20T04:53:02;8.83;;;4.77;;
71622;SDS011;59473;53.214;5.728;2022-12-20T04:55:46;11.73;;;4.97;;
71622;SDS011;59473;53.214;5.728;2022-12-20T04:58:11;10.67;;;4.60;;
71622;SDS011;59473;53.214;5.728;2022-12-20T05:00:36;11.53;;;4.80;;
71622;SDS011;59473;53.214;5.728;2022-12-20T05:03:02;10.17;;;4.47;;
71622;SDS011;59473;53.214;5.728;2022-12-20T05:05:27;9.80;;;5.03;;
71622;SDS011;59473;53.214;5.728;2022-12-20T05:07:52;13.35;;;6.38;;
71622;SDS011;59473;53.214;5.728;2022-12-20T05:10:18;8.70;;;4.63;;
71622;SDS011;59473;53.214;5.728;2022-12-20T05:12:43;9.33;;;4.60;;
71622;SDS011;59473;53.214;5.728;2022-12-20T05:15:09;9.10;;;4.07;;
71622;SDS011;59473;53.214;5.728;2022-12-20T05:17:34;7.70;;;4.40;;
71622;SDS011;59473;53.214;5.728;2022-12-20T05:19:59;7.73;;;4.20;;
71622;SDS011;59473;53.214;5.728;2022-12-20T05:22:25;10.20;;;4.53;;
71622;SDS011;59473;53.214;5.728;2022-12-20T05:25:09;10.13;;;4.82;;
71622;SDS011;59473;53.214;5.728;2022-12-20T05:27:53;9.77;;;4.45;;
71622;SDS011;59473;53.214;5.728;2022-12-20T05:30:18;10.57;;;5.33;;
71622;SDS011;59473;53.214;5.728;2022-12-20T05:32:44;8.10;;;4.77;;
71622;SDS011;59473;53.214;5.728;2022-12-20T05:35:09;8.77;;;4.30;;
71622;SDS011;59473;53.214;5.728;2022-12-20T05:37:34;9.43;;;3.67;;
71622;SDS011;59473;53.214;5.728;2022-12-20T05:39:59;8.82;;;5.00;;
71622;SDS011;59473;53.214;5.728;2022-12-20T05:42:25;9.95;;;3.83;;
71622;SDS011;59473;53.214;5.728;2022-12-20T05:44:50;7.33;;;4.63;;
71622;SDS011;59473;53.214;5.728;2022-12-20T05:47:15;9.63;;;4.68;;
71622;SDS011;59473;53.214;5.728;2022-12-20T05:49:40;8.07;;;4.57;;
71622;SDS011;59473;53.214;5.728;2022-12-20T05:52:06;8.05;;;4.20;;
71622;SDS011;59473;53.214;5.728;2022-12-20T05:54:31;9.40;;;5.00;;
71622;SDS011;59473;53.214;5.728;2022-12-20T05:56:56;8.83;;;4.70;;
71622;SDS011;59473;53.214;5.728;2022-12-20T05:59:22;7.43;;;4.47;;
71622;SDS011;59473;53.214;5.728;2022-12-20T06:01:47;8.87;;;4.77;;
71622;SDS011;59473;53.214;5.728;2022-12-20T06:04:12;7.83;;;4.23;;
71622;SDS011;59473;53.214;5.728;2022-12-20T06:06:37;9.57;;;4.30;;
71622;SDS011;59473;53.214;5.728;2022-12-20T06:09:03;10.33;;;4.87;;
71622;SDS011;59473;53.214;5.728;2022-12-20T06:11:28;9.43;;;4.40;;
71622;SDS011;59473;53.214;5.728;2022-12-20T06:13:53;9.33;;;4.80;;
71622;SDS011;59473;53.214;5.728;2022-12-20T06:16:18;7.63;;;4.77;;
71622;SDS011;59473;53.214;5.728;2022-12-20T06:18:45;9.85;;;4.35;;
71622;SDS011;59473;53.214;5.728;2022-12-20T06:21:10;9.63;;;4.47;;
71622;SDS011;59473;53.214;5.728;2022-12-20T06:23:35;11.37;;;4.83;;
71622;SDS011;59473;53.214;5.728;2022-12-20T06:26:00;10.30;;;5.03;;
71622;SDS011;59473;53.214;5.728;2022-12-20T06:28:26;9.40;;;4.70;;
71622;SDS011;59473;53.214;5.728;2022-12-20T06:30:52;11.93;;;5.03;;
71622;SDS011;59473;53.214;5.728;2022-12-20T06:33:17;12.00;;;5.57;;
71622;SDS011;59473;53.214;5.728;2022-12-20T06:35:43;9.03;;;5.17;;
71622;SDS011;59473;53.214;5.728;2022-12-20T06:38:08;10.90;;;5.27;;
71622;SDS011;59473;53.214;5.728;2022-12-20T06:40:33;9.60;;;5.77;;
71622;SDS011;59473;53.214;5.728;2022-12-20T06:42:58;12.43;;;6.20;;
71622;SDS011;59473;53.214;5.728;2022-12-20T06:45:24;11.73;;;6.43;;
71622;SDS011;59473;53.214;5.728;2022-12-20T06:47:49;13.10;;;6.60;;
71622;SDS011;59473;53.214;5.728;2022-12-20T06:50:14;13.53;;;6.17;;
71622;SDS011;59473;53.214;5.728;2022-12-20T06:52:39;11.33;;;6.53;;
71622;SDS011;59473;53.214;5.728;2022-12-20T06:55:05;11.37;;;6.60;;
71622;SDS011;59473;53.214;5.728;2022-12-20T06:57:30;11.50;;;7.00;;
71622;SDS011;59473;53.214;5.728;2022-12-20T06:59:55;10.98;;;6.57;;
71622;SDS011;59473;53.214;5.728;2022-12-20T07:02:21;10.03;;;5.90;;
71622;SDS011;59473;53.214;5.728;2022-12-20T07:04:46;10.83;;;6.13;;
71622;SDS011;59473;53.214;5.728;2022-12-20T07:07:11;11.73;;;6.20;;
71622;SDS011;59473;53.214;5.728;2022-12-20T07:09:37;13.93;;;8.67;;
71622;SDS011;59473;53.214;5.728;2022-12-20T07:12:05;11.20;;;7.28;;
71622;SDS011;59473;53.214;5.728;2022-12-20T07:14:31;12.23;;;8.38;;
71622;SDS011;59473;53.214;5.728;2022-12-20T07:16:56;12.00;;;6.40;;
71622;SDS011;59473;53.214;5.728;2022-12-20T07:19:21;10.03;;;5.47;;
71622;SDS011;59473;53.214;5.728;2022-12-20T07:21:46;8.73;;;5.40;;
71622;SDS011;59473;53.214;5.728;2022-12-20T07:24:12;8.63;;;5.07;;
71622;SDS011;59473;53.214;5.728;2022-12-20T07:26:37;14.07;;;5.87;;
71622;SDS011;59473;53.214;5.728;2022-12-20T07:29:02;9.13;;;5.50;;
71622;SDS011;59473;53.214;5.728;2022-12-20T07:31:27;11.40;;;5.97;;
71622;SDS011;59473;53.214;5.728;2022-12-20T07:33:53;9.87;;;5.60;;
71622;SDS011;59473;53.214;5.728;2022-12-20T07:36:18;9.20;;;5.77;;
71622;SDS011;59473;53.214;5.728;2022-12-20T07:38:43;12.70;;;6.10;;
71622;SDS011;59473;53.214;5.728;2022-12-20T07:41:10;12.03;;;5.47;;
71622;SDS011;59473;53.214;5.728;2022-12-20T07:43:35;10.13;;;5.53;;
71622;SDS011;59473;53.214;5.728;2022-12-20T07:46:01;10.17;;;5.93;;
71622;SDS011;59473;53.214;5.728;2022-12-20T07:48:27;11.32;;;5.22;;
71622;SDS011;59473;53.214;5.728;2022-12-20T07:50:52;12.07;;;6.30;;
71622;SDS011;59473;53.214;5.728;2022-12-20T07:53:18;11.70;;;5.73;;
71622;SDS011;59473;53.214;5.728;2022-12-20T07:55:44;10.02;;;5.45;;
71622;SDS011;59473;53.214;5.728;2022-12-20T07:58:09;11.20;;;5.63;;
71622;SDS011;59473;53.214;5.728;2022-12-20T08:00:35;9.82;;;5.80;;
71622;SDS011;59473;53.214;5.728;2022-12-20T08:03:20;9.82;;;5.50;;
71622;SDS011;59473;53.214;5.728;2022-12-20T08:05:46;8.33;;;5.00;;
71622;SDS011;59473;53.214;5.728;2022-12-20T08:08:12;9.15;;;4.85;;
71622;SDS011;59473;53.214;5.728;2022-12-20T08:10:38;12.27;;;5.60;;
71622;SDS011;59473;53.214;5.728;2022-12-20T08:13:04;10.10;;;5.57;;
71622;SDS011;59473;53.214;5.728;2022-12-20T08:15:30;7.70;;;4.50;;
71622;SDS011;59473;53.214;5.728;2022-12-20T08:17:56;11.43;;;5.00;;
71622;SDS011;59473;53.214;5.728;2022-12-20T08:20:21;10.60;;;5.57;;
71622;SDS011;59473;53.214;5.728;2022-12-20T08:22:46;9.47;;;5.20;;
71622;SDS011;59473;53.214;5.728;2022-12-20T08:25:11;8.77;;;4.87;;
71622;SDS011;59473;53.214;5.728;2022-12-20T08:27:37;8.43;;;4.90;;
71622;SDS011;59473;53.214;5.728;2022-12-20T08:30:02;7.30;;;4.93;;
71622;SDS011;59473;53.214;5.728;2022-12-20T08:32:28;8.75;;;5.15;;
71622;SDS011;59473;53.214;5.728;2022-12-20T08:34:53;10.57;;;4.83;;
71622;SDS011;59473;53.214;5.728;2022-12-20T08:37:19;8.20;;;4.82;;
71622;SDS011;59473;53.214;5.728;2022-12-20T08:39:44;8.43;;;5.00;;
71622;SDS011;59473;53.214;5.728;2022-12-20T08:42:10;9.00;;;4.53;;
71622;SDS011;59473;53.214;5.728;2022-12-20T08:44:35;9.03;;;5.13;;
71622;SDS011;59473;53.214;5.728;2022-12-20T08:47:00;7.97;;;4.50;;
71622;SDS011;59473;53.214;5.728;2022-12-20T08:49:25;9.60;;;4.63;;
71622;SDS011;59473;53.214;5.728;2022-12-20T08:51:51;7.83;;;4.33;;
71622;SDS011;59473;53.214;5.728;2022-12-20T08:54:16;8.40;;;3.80;;
71622;SDS011;59473;53.214;5.728;2022-12-20T08:56:41;9.00;;;4.40;;
71622;SDS011;59473;53.214;5.728;2022-12-20T08:59:07;7.73;;;4.27;;
71622;SDS011;59473;53.214;5.728;2022-12-20T09:01:32;8.20;;;4.27;;
71622;SDS011;59473;53.214;5.728;2022-12-20T09:03:57;8.60;;;4.55;;
71622;SDS011;59473;53.214;5.728;2022-12-20T09:06:23;10.53;;;5.27;;
71622;SDS011;59473;53.214;5.728;2022-12-20T09:08:48;9.77;;;4.37;;
71622;SDS011;59473;53.214;5.728;2022-12-20T09:11:15;8.87;;;3.80;;
71622;SDS011;59473;53.214;5.728;2022-12-20T09:13:41;8.18;;;3.70;;
71622;SDS011;59473;53.214;5.728;2022-12-20T09:16:06;7.05;;;3.53;;
71622;SDS011;59473;53.214;5.728;2022-12-20T09:18:32;7.00;;;3.70;;
71622;SDS011;59473;53.214;5.728;2022-12-20T09:21:00;9.13;;;4.30;;
71622;SDS011;59473;53.214;5.728;2022-12-20T09:23:26;9.37;;;3.93;;
71622;SDS011;59473;53.214;5.728;2022-12-20T09:25:51;7.75;;;3.70;;
71622;SDS011;59473;53.214;5.728;2022-12-20T09:28:17;10.00;;;3.50;;
71622;SDS011;59473;53.214;5.728;2022-12-20T09:30:42;6.07;;;3.60;;
71622;SDS011;59473;53.214;5.728;2022-12-20T09:33:07;7.77;;;3.77;;
71622;SDS011;59473;53.214;5.728;2022-12-20T09:35:32;7.30;;;3.63;;
71622;SDS011;59473;53.214;5.728;2022-12-20T09:37:58;9.45;;;3.38;;
71622;SDS011;59473;53.214;5.728;2022-12-20T09:40:24;6.87;;;3.50;;
71622;SDS011;59473;53.214;5.728;2022-12-20T09:42:51;9.30;;;3.40;;
71622;SDS011;59473;53.214;5.728;2022-12-20T09:45:24;7.35;;;3.80;;
71622;SDS011;59473;53.214;5.728;2022-12-20T09:47:50;8.02;;;3.85;;
71622;SDS011;59473;53.214;5.728;2022-12-20T09:50:16;7.15;;;3.53;;
71622;SDS011;59473;53.214;5.728;2022-12-20T09:55:23;8.00;;;3.67;;
71622;SDS011;59473;53.214;5.728;2022-12-20T10:00:19;7.50;;;3.38;;
71622;SDS011;59473;53.214;5.728;2022-12-20T10:02:45;11.07;;;4.00;;
71622;SDS011;59473;53.214;5.728;2022-12-20T10:05:15;9.00;;;4.22;;
71622;SDS011;59473;53.214;5.728;2022-12-20T10:13:04;9.25;;;4.03;;
71622;SDS011;59473;53.214;5.728;2022-12-20T10:15:37;8.10;;;3.30;;
71622;SDS011;59473;53.214;5.728;2022-12-20T10:23:18;6.50;;;3.20;;
71622;SDS011;59473;53.214;5.728;2022-12-20T10:25:48;8.80;;;3.63;;
71622;SDS011;59473;53.214;5.728;2022-12-20T10:28:14;7.85;;;3.47;;
71622;SDS011;59473;53.214;5.728;2022-12-20T10:30:40;8.87;;;3.87;;
71622;SDS011;59473;53.214;5.728;2022-12-20T10:33:07;8.05;;;3.60;;
71622;SDS011;59473;53.214;5.728;2022-12-20T10:35:38;7.20;;;3.50;;
71622;SDS011;59473;53.214;5.728;2022-12-20T10:38:11;7.88;;;3.50;;
71622;SDS011;59473;53.214;5.728;2022-12-20T10:40:38;10.65;;;3.78;;
71622;SDS011;59473;53.214;5.728;2022-12-20T10:43:04;7.65;;;3.33;;
71622;SDS011;59473;53.214;5.728;2022-12-20T10:45:32;11.25;;;3.75;;
71622;SDS011;59473;53.214;5.728;2022-12-20T10:47:59;6.97;;;3.70;;
71622;SDS011;59473;53.214;5.728;2022-12-20T10:50:24;9.05;;;3.40;;
71622;SDS011;59473;53.214;5.728;2022-12-20T10:53:05;8.17;;;3.97;;
71622;SDS011;59473;53.214;5.728;2022-12-20T10:55:37;9.18;;;3.45;;
71622;SDS011;59473;53.214;5.728;2022-12-20T10:58:28;8.25;;;3.75;;
71622;SDS011;59473;53.214;5.728;2022-12-20T11:00:49;6.97;;;3.58;;
71622;SDS011;59473;53.214;5.728;2022-12-20T11:05:39;12.87;;;5.50;;
71622;SDS011;59473;53.214;5.728;2022-12-20T11:08:15;8.07;;;4.63;;
71622;SDS011;59473;53.214;5.728;2022-12-20T11:10:41;7.57;;;3.60;;
71622;SDS011;59473;53.214;5.728;2022-12-20T11:13:09;7.07;;;3.80;;
71622;SDS011;59473;53.214;5.728;2022-12-20T11:15:46;7.60;;;3.88;;
71622;SDS011;59473;53.214;5.728;2022-12-20T11:18:14;7.60;;;3.60;;
71622;SDS011;59473;53.214;5.728;2022-12-20T11:23:17;8.03;;;4.07;;
71622;SDS011;59473;53.214;5.728;2022-12-20T11:30:42;10.07;;;4.27;;
71622;SDS011;59473;53.214;5.728;2022-12-20T11:35:54;6.88;;;3.90;;
71622;SDS011;59473;53.214;5.728;2022-12-20T11:56:20;10.63;;;5.20;;
71622;SDS011;59473;53.214;5.728;2022-12-20T11:58:54;12.53;;;5.17;;
71622;SDS011;59473;53.214;5.728;2022-12-20T12:01:34;9.55;;;4.80;;
71622;SDS011;59473;53.214;5.728;2022-12-20T12:04:15;9.15;;;5.40;;
71622;SDS011;59473;53.214;5.728;2022-12-20T12:06:45;10.40;;;5.22;;
71622;SDS011;59473;53.214;5.728;2022-12-20T12:09:13;12.23;;;5.97;;
71622;SDS011;59473;53.214;5.728;2022-12-20T12:11:45;11.80;;;5.70;;
71622;SDS011;59473;53.214;5.728;2022-12-20T12:14:17;10.32;;;5.80;;
71622;SDS011;59473;53.214;5.728;2022-12-20T12:16:44;10.32;;;5.97;;
71622;SDS011;59473;53.214;5.728;2022-12-20T12:19:11;11.48;;;6.25;;
71622;SDS011;59473;53.214;5.728;2022-12-20T12:21:38;11.13;;;6.80;;
71622;SDS011;59473;53.214;5.728;2022-12-20T12:24:08;13.98;;;6.68;;
71622;SDS011;59473;53.214;5.728;2022-12-20T12:26:38;11.88;;;6.47;;
71622;SDS011;59473;53.214;5.728;2022-12-20T12:29:16;13.50;;;7.97;;
71622;SDS011;59473;53.214;5.728;2022-12-20T12:31:43;12.50;;;6.70;;
71622;SDS011;59473;53.214;5.728;2022-12-20T12:47:05;9.47;;;6.03;;
71622;SDS011;59473;53.214;5.728;2022-12-20T12:49:32;12.63;;;7.05;;
71622;SDS011;59473;53.214;5.728;2022-12-20T12:51:58;11.90;;;7.43;;
71622;SDS011;59473;53.214;5.728;2022-12-20T12:56:52;12.95;;;6.70;;
71622;SDS011;59473;53.214;5.728;2022-12-20T13:06:54;11.37;;;6.97;;
71622;SDS011;59473;53.214;5.728;2022-12-20T13:11:52;15.45;;;8.55;;
71622;SDS011;59473;53.214;5.728;2022-12-20T13:16:48;17.97;;;9.20;;
71622;SDS011;59473;53.214;5.728;2022-12-20T13:19:14;11.73;;;8.05;;
71622;SDS011;59473;53.214;5.728;2022-12-20T13:21:40;14.68;;;7.50;;
71622;SDS011;59473;53.214;5.728;2022-12-20T13:26:51;28.80;;;15.60;;
71622;SDS011;59473;53.214;5.728;2022-12-20T13:29:22;17.70;;;10.48;;
71622;SDS011;59473;53.214;5.728;2022-12-20T13:31:48;14.40;;;8.25;;
71622;SDS011;59473;53.214;5.728;2022-12-20T13:34:59;16.87;;;8.80;;
71622;SDS011;59473;53.214;5.728;2022-12-20T13:36:59;16.53;;;9.80;;
71622;SDS011;59473;53.214;5.728;2022-12-20T13:42:05;13.13;;;8.20;;
71622;SDS011;59473;53.214;5.728;2022-12-20T13:44:34;16.02;;;8.43;;
71622;SDS011;59473;53.214;5.728;2022-12-20T13:49:25;13.60;;;8.93;;
71622;SDS011;59473;53.214;5.728;2022-12-20T13:54:42;13.67;;;8.27;;
71622;SDS011;59473;53.214;5.728;2022-12-20T13:57:08;17.75;;;9.82;;
71622;SDS011;59473;53.214;5.728;2022-12-20T13:59:35;17.10;;;10.00;;
71622;SDS011;59473;53.214;5.728;2022-12-20T14:02:02;15.00;;;9.10;;
71622;SDS011;59473;53.214;5.728;2022-12-20T14:04:41;14.75;;;9.05;;
71622;SDS011;59473;53.214;5.728;2022-12-20T14:07:07;18.02;;;11.10;;
71622;SDS011;59473;53.214;5.728;2022-12-20T14:09:34;25.33;;;12.40;;
71622;SDS011;59473;53.214;5.728;2022-12-20T14:14:28;16.98;;;10.30;;
71622;SDS011;59473;53.214;5.728;2022-12-20T14:16:54;22.33;;;13.83;;
71622;SDS011;59473;53.214;5.728;2022-12-20T14:19:19;21.67;;;12.60;;
71622;SDS011;59473;53.214;5.728;2022-12-20T14:21:44;20.47;;;9.77;;
71622;SDS011;59473;53.214;5.728;2022-12-20T14:24:14;18.83;;;10.80;;
71622;SDS011;59473;53.214;5.728;2022-12-20T14:26:41;19.65;;;11.30;;
71622;SDS011;59473;53.214;5.728;2022-12-20T14:29:14;22.05;;;11.65;;
71622;SDS011;59473;53.214;5.728;2022-12-20T14:31:41;16.88;;;11.00;;
71622;SDS011;59473;53.214;5.728;2022-12-20T14:36:35;17.87;;;10.60;;
71622;SDS011;59473;53.214;5.728;2022-12-20T14:39:09;21.48;;;11.02;;
71622;SDS011;59473;53.214;5.728;2022-12-20T14:41:46;17.45;;;10.98;;
71622;SDS011;59473;53.214;5.728;2022-12-20T14:44:12;14.57;;;9.53;;
71622;SDS011;59473;53.214;5.728;2022-12-20T14:46:39;18.15;;;10.25;;
71622;SDS011;59473;53.214;5.728;2022-12-20T14:51:38;16.60;;;10.53;;
71622;SDS011;59473;53.214;5.728;2022-12-20T14:54:04;20.30;;;11.00;;
71622;SDS011;59473;53.214;5.728;2022-12-20T14:56:29;17.30;;;11.73;;
71622;SDS011;59473;53.214;5.728;2022-12-20T14:59:16;18.50;;;10.93;;
71622;SDS011;59473;53.214;5.728;2022-12-20T15:01:42;21.10;;;12.77;;
71622;SDS011;59473;53.214;5.728;2022-12-20T15:06:47;19.77;;;12.43;;
71622;SDS011;59473;53.214;5.728;2022-12-20T15:09:13;19.03;;;12.40;;
71622;SDS011;59473;53.214;5.728;2022-12-20T15:11:38;21.10;;;11.30;;
71622;SDS011;59473;53.214;5.728;2022-12-20T15:14:47;19.83;;;12.40;;
71622;SDS011;59473;53.214;5.728;2022-12-20T15:16:53;21.27;;;12.23;;
71622;SDS011;59473;53.214;5.728;2022-12-20T15:19:19;17.53;;;11.73;;
71622;SDS011;59473;53.214;5.728;2022-12-20T15:21:45;20.30;;;12.43;;
71622;SDS011;59473;53.214;5.728;2022-12-20T15:24:11;25.33;;;12.00;;
71622;SDS011;59473;53.214;5.728;2022-12-20T15:26:37;17.33;;;10.63;;
71622;SDS011;59473;53.214;5.728;2022-12-20T15:29:03;19.13;;;12.33;;
71622;SDS011;59473;53.214;5.728;2022-12-20T15:31:28;21.23;;;11.50;;
71622;SDS011;59473;53.214;5.728;2022-12-20T15:33:54;19.02;;;11.65;;
71622;SDS011;59473;53.214;5.728;2022-12-20T15:36:23;21.17;;;12.00;;
71622;SDS011;59473;53.214;5.728;2022-12-20T15:38:50;19.13;;;12.48;;
71622;SDS011;59473;53.214;5.728;2022-12-20T15:41:20;17.47;;;13.10;;
71622;SDS011;59473;53.214;5.728;2022-12-20T15:43:46;19.70;;;12.45;;
71622;SDS011;59473;53.214;5.728;2022-12-20T15:46:11;16.53;;;11.53;;
71622;SDS011;59473;53.214;5.728;2022-12-20T15:48:38;17.42;;;11.25;;
71622;SDS011;59473;53.214;5.728;2022-12-20T15:51:06;32.97;;;16.53;;
71622;SDS011;59473;53.214;5.728;2022-12-20T15:53:36;33.40;;;17.55;;
71622;SDS011;59473;53.214;5.728;2022-12-20T15:56:01;22.67;;;13.80;;
71622;SDS011;59473;53.214;5.728;2022-12-20T15:58:26;22.47;;;13.47;;
71622;SDS011;59473;53.214;5.728;2022-12-20T16:00:52;27.43;;;15.70;;
71622;SDS011;59473;53.214;5.728;2022-12-20T16:03:21;24.80;;;14.57;;
71622;SDS011;59473;53.214;5.728;2022-12-20T16:05:48;24.80;;;16.33;;
71622;SDS011;59473;53.214;5.728;2022-12-20T16:08:13;23.40;;;13.07;;
71622;SDS011;59473;53.214;5.728;2022-12-20T16:10:38;24.60;;;13.83;;
71622;SDS011;59473;53.214;5.728;2022-12-20T16:13:04;24.97;;;14.87;;
71622;SDS011;59473;53.214;5.728;2022-12-20T16:15:31;23.73;;;14.02;;
71622;SDS011;59473;53.214;5.728;2022-12-20T16:17:56;27.70;;;16.43;;
71622;SDS011;59473;53.214;5.728;2022-12-20T16:20:22;26.53;;;17.23;;
71622;SDS011;59473;53.214;5.728;2022-12-20T16:22:47;26.57;;;15.63;;
71622;SDS011;59473;53.214;5.728;2022-12-20T16:25:19;28.30;;;15.10;;
71622;SDS011;59473;53.214;5.728;2022-12-20T16:27:47;26.95;;;15.88;;
71622;SDS011;59473;53.214;5.728;2022-12-20T16:30:12;23.10;;;14.80;;